Time;durP1;ratioP1;P1;durP2;ratioP2;P2;SDS_P1;SDS_P2;PMS_P1;PMS_P2;Temp;Humidity;BMP_temperature;BMP_pressure;BME280_temperature;BME280_humidity;BME280_pressure;Samples;Min_cycle;Max_cycle;Signal;HPM_P1;HPM_P2
2023/12/23 00:02:22;;;;;;;10.65;1.35;;;5.50;99.90;;;;;;5040981;28;20132;-68
2023/12/23 00:04:48;;;;;;;8.75;1.13;;;5.50;99.90;;;;;;5036509;28;20409;-68
2023/12/23 00:07:14;;;;;;;9.68;1.38;;;5.40;99.90;;;;;;5037667;28;20053;-68
2023/12/23 00:09:41;;;;;;;8.82;1.08;;;5.40;99.90;;;;;;5041876;28;20057;-68
2023/12/23 00:12:10;;;;;;;12.05;1.65;;;5.40;99.90;;;;;;5038469;28;20047;-68
2023/12/23 00:14:35;;;;;;;10.15;1.00;;;5.40;99.90;;;;;;5029305;28;20053;-68
2023/12/23 00:17:01;;;;;;;8.65;1.60;;;5.40;99.90;;;;;;5034019;28;20055;-68
2023/12/23 00:19:27;;;;;;;14.20;2.75;;;5.40;99.90;;;;;;5041963;28;20066;-68
2023/12/23 00:21:54;;;;;;;10.63;1.20;;;5.40;99.90;;;;;;5038858;28;20074;-68
2023/12/23 00:24:20;;;;;;;;;;;5.40;99.90;;;;;;5053969;28;20072;-68
2023/12/23 00:26:46;;;;;;;10.48;1.63;;;5.40;99.90;;;;;;5049517;28;19966;-68
2023/12/23 00:29:11;;;;;;;16.02;1.50;;;5.40;99.90;;;;;;5041446;28;20048;-68
2023/12/23 00:31:37;;;;;;;6.75;1.20;;;5.40;99.90;;;;;;5042399;28;20128;-68
2023/12/23 00:34:02;;;;;;;10.75;1.20;;;5.40;99.90;;;;;;5041036;28;20052;-68
2023/12/23 00:36:28;;;;;;;7.90;1.85;;;5.40;99.90;;;;;;5045433;28;20048;-68
2023/12/23 00:38:54;;;;;;;17.60;3.40;;;5.30;99.90;;;;;;5042323;28;20056;-69
2023/12/23 00:41:19;;;;;;;11.80;1.52;;;5.40;99.90;;;;;;5042213;28;20041;-68
2023/12/23 00:43:45;;;;;;;11.63;1.73;;;5.40;99.90;;;;;;5044840;28;20120;-68
2023/12/23 00:46:10;;;;;;;12.05;1.08;;;5.30;99.90;;;;;;5036339;28;20045;-68
2023/12/23 00:48:37;;;;;;;12.05;1.73;;;5.40;99.90;;;;;;5033135;28;20215;-68
2023/12/23 00:51:04;;;;;;;12.77;1.92;;;5.40;99.90;;;;;;5041083;28;20056;-68
2023/12/23 00:53:29;;;;;;;18.33;2.47;;;5.50;99.90;;;;;;5039984;28;20045;-68
2023/12/23 00:55:55;;;;;;;16.55;1.83;;;5.50;99.90;;;;;;5042488;28;20090;-68
2023/12/23 00:58:21;;;;;;;16.45;1.73;;;5.60;99.90;;;;;;5039155;28;20083;-68
2023/12/23 01:00:46;;;;;;;15.15;1.73;;;5.60;99.90;;;;;;5041134;28;20044;-67
2023/12/23 01:03:12;;;;;;;16.67;2.25;;;5.70;99.90;;;;;;5042848;28;20091;-68
2023/12/23 01:05:38;;;;;;;12.57;1.85;;;5.70;99.90;;;;;;5030169;28;20489;-68
2023/12/23 01:08:04;;;;;;;16.08;2.08;;;5.70;99.90;;;;;;5039196;28;20057;-68
2023/12/23 01:10:29;;;;;;;9.32;1.83;;;5.80;99.90;;;;;;5044092;28;20577;-68
2023/12/23 01:12:55;;;;;;;8.77;1.52;;;5.80;99.90;;;;;;5043240;28;20597;-68
2023/12/23 01:15:21;;;;;;;9.48;1.77;;;5.80;99.90;;;;;;5044642;28;20028;-68
2023/12/23 01:17:47;;;;;;;13.85;1.58;;;5.80;99.90;;;;;;5040917;28;20134;-68
2023/12/23 01:20:12;;;;;;;11.75;1.60;;;5.80;99.90;;;;;;5044802;28;20052;-68
2023/12/23 01:22:38;;;;;;;9.00;1.35;;;5.80;99.90;;;;;;5052980;28;20079;-68
2023/12/23 01:25:04;;;;;;;8.95;1.50;;;5.90;99.90;;;;;;5041677;28;20052;-68
2023/12/23 01:27:29;;;;;;;13.23;2.10;;;5.90;99.90;;;;;;5046920;28;20045;-68
2023/12/23 01:29:55;;;;;;;9.93;1.05;;;5.90;99.90;;;;;;5046064;28;20128;-68
2023/12/23 01:32:21;;;;;;;8.60;1.73;;;5.90;99.90;;;;;;5045989;28;20156;-68
2023/12/23 01:34:47;;;;;;;13.48;1.90;;;5.90;99.90;;;;;;5048478;28;20052;-68
2023/12/23 01:37:13;;;;;;;10.35;1.70;;;5.90;99.90;;;;;;5045951;28;20734;-68
2023/12/23 01:39:39;;;;;;;16.20;1.85;;;5.90;99.90;;;;;;5042943;28;20052;-68
2023/12/23 01:42:05;;;;;;;13.23;2.30;;;5.90;99.90;;;;;;5047778;28;20041;-68
2023/12/23 01:44:31;;;;;;;9.05;1.42;;;6.00;99.90;;;;;;5045372;28;20044;-68
2023/12/23 01:46:58;;;;;;;8.55;1.55;;;6.00;99.90;;;;;;5050918;28;20276;-68
2023/12/23 01:49:25;;;;;;;12.18;2.22;;;6.00;99.90;;;;;;5044170;28;20599;-68
2023/12/23 01:51:53;;;;;;;12.37;1.80;;;6.10;99.90;;;;;;5045436;28;20091;-68
2023/12/23 01:54:21;;;;;;;13.60;1.90;;;6.10;99.90;;;;;;5045099;28;20303;-69
2023/12/23 01:56:48;;;;;;;10.02;1.42;;;6.10;99.90;;;;;;5055818;28;20041;-68
2023/12/23 01:59:15;;;;;;;13.35;1.30;;;6.10;99.90;;;;;;5045799;28;20115;-69
2023/12/23 02:01:42;;;;;;;13.52;2.03;;;6.20;99.90;;;;;;5048535;28;20525;-69
2023/12/23 02:04:08;;;;;;;11.68;1.73;;;6.20;99.90;;;;;;5049147;28;20061;-68
2023/12/23 02:06:34;;;;;;;11.77;1.92;;;6.20;99.90;;;;;;5046540;28;20524;-68
2023/12/23 02:09:04;;;;;;;7.72;1.25;;;6.20;99.90;;;;;;5046853;28;20051;-68
2023/12/23 02:11:44;;;;;;;13.82;2.03;;;6.20;99.90;;;;;;5044542;28;20071;-68
2023/12/23 02:14:20;;;;;;;11.20;2.20;;;6.20;99.90;;;;;;5047667;28;20480;-68
2023/12/23 02:16:47;;;;;;;12.60;2.22;;;6.20;99.90;;;;;;5046126;28;20049;-68
2023/12/23 02:19:13;;;;;;;12.73;1.85;;;6.20;99.90;;;;;;5049531;28;20518;-68
2023/12/23 02:21:38;;;;;;;6.18;1.00;;;6.20;99.90;;;;;;5048232;28;20045;-69
2023/12/23 02:24:04;;;;;;;12.73;1.83;;;6.20;99.90;;;;;;5046931;28;20033;-69
2023/12/23 02:26:33;;;;;;;9.93;1.80;;;6.20;99.90;;;;;;5049209;28;20040;-69
2023/12/23 02:29:01;;;;;;;7.45;1.20;;;6.20;99.90;;;;;;5045058;28;20048;-68
2023/12/23 02:31:28;;;;;;;12.48;1.90;;;6.20;99.90;;;;;;5047253;28;20044;-68
2023/12/23 02:33:54;;;;;;;4.97;1.02;;;6.20;99.90;;;;;;5040868;28;20053;-68
2023/12/23 02:36:21;;;;;;;14.73;1.40;;;6.20;99.90;;;;;;5045002;28;20059;-68
2023/12/23 02:38:50;;;;;;;16.25;1.52;;;6.20;99.90;;;;;;5048079;28;20107;-68
2023/12/23 02:41:16;;;;;;;6.03;1.05;;;6.10;99.90;;;;;;5046262;28;20091;-68
2023/12/23 02:43:42;;;;;;;8.05;1.50;;;6.20;99.90;;;;;;5043292;28;20041;-68
2023/12/23 02:46:07;;;;;;;5.00;1.13;;;6.20;99.90;;;;;;5049694;28;20128;-68
2023/12/23 02:48:33;;;;;;;13.50;2.30;;;6.20;99.90;;;;;;5049704;28;20041;-68
2023/12/23 02:50:58;;;;;;;7.43;1.27;;;6.20;99.90;;;;;;5045629;28;20401;-68
2023/12/23 02:53:24;;;;;;;10.45;1.10;;;6.20;99.90;;;;;;5043722;28;20041;-69
2023/12/23 02:55:50;;;;;;;10.75;1.98;;;6.20;99.90;;;;;;5046026;28;20066;-68
2023/12/23 02:58:15;;;;;;;12.70;1.80;;;6.20;99.90;;;;;;5050046;28;20048;-68
2023/12/23 03:00:41;;;;;;;8.43;1.88;;;6.20;99.90;;;;;;5046130;28;20040;-68
2023/12/23 03:03:06;;;;;;;10.93;1.58;;;6.10;99.90;;;;;;5050150;28;20504;-68
2023/12/23 03:05:32;;;;;;;17.20;1.73;;;6.10;99.90;;;;;;5045011;28;20077;-68
2023/12/23 03:07:57;;;;;;;6.97;0.77;;;6.10;99.90;;;;;;5047812;28;20040;-69
2023/12/23 03:10:24;;;;;;;13.30;1.10;;;6.00;99.90;;;;;;5044241;28;20460;-68
2023/12/23 03:12:49;;;;;;;9.75;1.95;;;6.00;99.90;;;;;;5045755;28;20095;-68
2023/12/23 03:15:16;;;;;;;12.25;1.50;;;6.00;99.90;;;;;;5045849;28;20463;-68
2023/12/23 03:17:41;;;;;;;10.00;1.30;;;6.00;99.90;;;;;;5049041;28;20047;-68
2023/12/23 03:20:08;;;;;;;9.07;1.42;;;5.90;99.90;;;;;;5048970;28;20033;-68
2023/12/23 03:22:34;;;;;;;10.10;1.67;;;5.80;99.90;;;;;;5044702;28;20045;-68
2023/12/23 03:25:00;;;;;;;13.50;2.60;;;5.80;99.90;;;;;;5046507;28;20033;-68
2023/12/23 03:27:25;;;;;;;6.22;0.88;;;5.80;99.90;;;;;;5042634;28;20110;-68
2023/12/23 03:29:51;;;;;;;10.57;1.85;;;5.80;99.90;;;;;;5046723;28;20059;-69
2023/12/23 03:32:16;;;;;;;6.20;0.90;;;5.80;99.90;;;;;;5045644;28;20037;-68
2023/12/23 03:34:42;;;;;;;11.73;1.27;;;5.80;99.90;;;;;;5047742;28;20487;-68
2023/12/23 03:37:08;;;;;;;9.93;1.10;;;5.80;99.90;;;;;;5041676;28;20045;-69
2023/12/23 03:39:33;;;;;;;20.35;2.97;;;5.70;99.90;;;;;;5045489;28;20056;-68
2023/12/23 03:41:59;;;;;;;11.38;2.85;;;5.80;99.90;;;;;;5045685;28;20041;-68
2023/12/23 03:44:24;;;;;;;7.55;1.50;;;5.80;99.90;;;;;;5043902;28;20707;-68
2023/12/23 03:46:50;;;;;;;12.95;2.28;;;5.80;99.90;;;;;;5046030;28;20190;-68
2023/12/23 03:49:15;;;;;;;4.82;0.98;;;5.80;99.90;;;;;;5042049;28;20511;-68
2023/12/23 03:51:41;;;;;;;6.32;0.90;;;5.70;99.90;;;;;;5041576;28;20044;-68
2023/12/23 03:54:07;;;;;;;6.55;0.82;;;5.70;99.90;;;;;;5046945;28;20064;-68
2023/12/23 03:56:32;;;;;;;4.95;0.80;;;5.60;99.90;;;;;;5047211;28;20041;-68
2023/12/23 03:58:58;;;;;;;4.95;0.70;;;5.70;99.90;;;;;;5042394;28;20044;-68
2023/12/23 04:01:24;;;;;;;11.05;1.73;;;5.60;99.90;;;;;;5047879;28;20072;-68
2023/12/23 04:03:50;;;;;;;5.60;0.63;;;5.60;99.90;;;;;;5042740;28;20083;-68
2023/12/23 04:06:16;;;;;;;10.15;0.90;;;5.60;99.90;;;;;;5045347;28;20127;-68
2023/12/23 04:08:42;;;;;;;8.70;1.20;;;5.60;99.90;;;;;;5040972;28;20040;-69
2023/12/23 04:11:08;;;;;;;9.55;1.13;;;5.60;99.90;;;;;;5040734;28;20041;-68
2023/12/23 04:13:34;;;;;;;7.95;1.10;;;5.60;99.90;;;;;;5073895;28;20098;-68
2023/12/23 04:16:05;;;;;;;3.58;1.08;;;5.60;99.90;;;;;;5047968;28;20556;-68
2023/12/23 04:18:31;;;;;;;6.40;1.10;;;5.60;99.90;;;;;;5043844;28;20071;-68
2023/12/23 04:20:57;;;;;;;11.88;2.22;;;5.60;99.90;;;;;;5047019;28;20088;-68
2023/12/23 04:23:23;;;;;;;8.80;1.10;;;5.60;99.90;;;;;;5046769;28;20508;-69
2023/12/23 04:25:49;;;;;;;3.75;0.77;;;5.70;99.90;;;;;;5048106;28;20309;-68
2023/12/23 04:28:15;;;;;;;6.35;1.00;;;5.70;99.90;;;;;;5044892;28;20056;-69
2023/12/23 04:30:41;;;;;;;9.93;1.02;;;5.70;99.90;;;;;;5044176;28;20049;-69
2023/12/23 04:33:07;;;;;;;4.63;0.90;;;5.70;99.90;;;;;;5044506;28;20536;-68
2023/12/23 04:35:33;;;;;;;5.32;0.68;;;5.70;99.90;;;;;;5045536;28;20045;-68
2023/12/23 04:37:59;;;;;;;7.38;0.88;;;5.70;99.90;;;;;;5044801;28;20040;-68
2023/12/23 04:40:24;;;;;;;4.22;0.90;;;5.70;99.90;;;;;;5047293;28;20495;-68
2023/12/23 04:42:50;;;;;;;4.43;0.70;;;5.70;99.90;;;;;;5044830;28;20037;-68
2023/12/23 04:45:15;;;;;;;3.53;0.70;;;5.70;99.90;;;;;;5045717;28;20118;-68
2023/12/23 04:47:41;;;;;;;7.90;2.20;;;5.70;99.90;;;;;;5046602;28;20543;-68
2023/12/23 04:50:07;;;;;;;5.97;0.90;;;5.80;99.90;;;;;;5035937;28;20052;-68
2023/12/23 04:52:33;;;;;;;4.40;1.00;;;5.90;99.90;;;;;;5041597;28;20041;-69
2023/12/23 04:54:59;;;;;;;2.03;0.90;;;5.90;99.90;;;;;;5044442;28;20049;-68
2023/12/23 04:57:26;;;;;;;5.95;1.30;;;5.80;99.90;;;;;;5044510;28;20484;-68
2023/12/23 04:59:52;;;;;;;7.75;2.85;;;5.80;99.90;;;;;;5046189;28;20052;-68
2023/12/23 05:02:17;;;;;;;4.40;1.55;;;5.90;99.90;;;;;;5046505;28;20400;-68
2023/12/23 05:04:46;;;;;;;3.10;1.13;;;5.90;99.90;;;;;;5045654;28;20144;-68
2023/12/23 05:07:12;;;;;;;3.25;0.90;;;6.00;99.90;;;;;;5038628;28;20079;-68
2023/12/23 05:09:37;;;;;;;7.32;2.50;;;5.90;99.90;;;;;;5042879;28;20799;-68
2023/12/23 05:12:03;;;;;;;3.20;1.08;;;6.00;99.90;;;;;;5049866;28;20045;-68
2023/12/23 05:14:29;;;;;;;3.63;1.00;;;6.00;99.90;;;;;;5045422;28;20064;-68
2023/12/23 05:16:54;;;;;;;1.60;0.90;;;6.00;99.90;;;;;;5075745;28;20044;-68
2023/12/23 05:19:20;;;;;;;2.95;1.00;;;6.00;99.90;;;;;;5046899;28;20045;-68
2023/12/23 05:21:46;;;;;;;5.60;1.80;;;6.00;99.90;;;;;;5048522;28;20184;-68
2023/12/23 05:24:12;;;;;;;2.28;0.93;;;6.10;99.90;;;;;;5048024;28;20045;-68
2023/12/23 05:26:38;;;;;;;4.03;1.80;;;6.00;99.90;;;;;;5049743;28;20036;-68
2023/12/23 05:29:03;;;;;;;3.40;1.10;;;6.10;99.90;;;;;;5046999;28;20041;-68
2023/12/23 05:31:29;;;;;;;5.43;1.85;;;6.10;99.90;;;;;;5047031;28;20051;-69
2023/12/23 05:33:56;;;;;;;6.03;1.02;;;6.10;99.90;;;;;;5049391;28;20485;-68
2023/12/23 05:36:22;;;;;;;4.90;2.00;;;6.00;99.90;;;;;;5051809;28;20556;-68
2023/12/23 05:38:48;;;;;;;5.57;2.05;;;6.10;99.90;;;;;;5046423;28;20036;-69
2023/12/23 05:41:13;;;;;;;5.50;1.20;;;6.10;99.90;;;;;;5047695;28;20049;-69
2023/12/23 05:43:39;;;;;;;5.78;2.60;;;6.00;99.90;;;;;;5045600;28;20127;-69
2023/12/23 05:46:05;;;;;;;4.78;1.17;;;6.10;99.90;;;;;;5047216;28;20047;-68
2023/12/23 05:48:30;;;;;;;4.35;1.50;;;6.10;99.90;;;;;;5044144;28;20532;-68
2023/12/23 05:50:56;;;;;;;5.15;2.80;;;6.10;99.90;;;;;;5045974;28;20130;-68
2023/12/23 05:53:21;;;;;;;1.52;1.13;;;6.10;99.90;;;;;;5045908;28;21154;-68
2023/12/23 05:55:47;;;;;;;2.70;1.10;;;6.10;99.90;;;;;;5042292;28;20373;-68
2023/12/23 05:58:13;;;;;;;2.15;1.00;;;6.10;99.90;;;;;;5047859;28;20361;-69
2023/12/23 06:00:38;;;;;;;2.85;1.50;;;6.00;99.90;;;;;;5044871;28;20507;-68
2023/12/23 06:03:04;;;;;;;4.35;1.50;;;6.00;99.90;;;;;;5046965;28;20045;-69
2023/12/23 06:05:30;;;;;;;2.03;1.40;;;6.10;99.90;;;;;;5045473;28;20048;-69
2023/12/23 06:07:56;;;;;;;2.80;1.20;;;6.10;99.90;;;;;;5046438;28;20079;-68
2023/12/23 06:10:22;;;;;;;1.92;1.40;;;6.10;99.90;;;;;;5037719;28;20064;-68
2023/12/23 06:12:48;;;;;;;2.13;1.20;;;6.10;99.90;;;;;;5045962;28;20048;-68
2023/12/23 06:15:14;;;;;;;3.88;1.10;;;6.10;99.90;;;;;;5044898;28;20103;-68
2023/12/23 06:17:39;;;;;;;3.40;1.30;;;6.20;99.90;;;;;;5051371;28;20075;-68
2023/12/23 06:20:05;;;;;;;2.97;1.27;;;6.30;99.90;;;;;;5048338;28;20051;-68
2023/12/23 06:22:31;;;;;;;8.18;1.67;;;6.50;99.90;;;;;;5046884;28;20128;-69
2023/12/23 06:24:57;;;;;;;13.65;4.90;;;6.80;99.90;;;;;;5050278;28;20175;-68
2023/12/23 06:27:23;;;;;;;12.50;2.67;;;7.10;99.90;;;;;;5041222;28;20083;-68
2023/12/23 06:29:48;;;;;;;10.90;2.10;;;7.50;99.90;;;;;;5046828;28;20040;-68
2023/12/23 06:32:14;;;;;;;11.98;4.78;;;7.70;99.90;;;;;;5044030;28;20041;-69
2023/12/23 06:34:39;;;;;;;8.50;2.63;;;7.90;99.90;;;;;;5048066;28;20083;-69
2023/12/23 06:37:05;;;;;;;14.38;4.85;;;8.10;99.90;;;;;;5051049;28;20045;-68
2023/12/23 06:39:31;;;;;;;13.40;3.20;;;8.20;99.90;;;;;;5043701;28;20080;-68
2023/12/23 06:41:57;;;;;;;16.92;4.78;;;8.30;99.90;;;;;;5041229;28;20084;-68
2023/12/23 06:44:22;;;;;;;9.95;2.92;;;8.40;99.90;;;;;;5042935;28;20044;-68
2023/12/23 06:46:48;;;;;;;11.15;4.03;;;8.40;99.90;;;;;;5047164;28;20052;-68
2023/12/23 06:49:14;;;;;;;12.50;3.60;;;8.50;99.90;;;;;;5041882;28;20041;-68
2023/12/23 06:51:39;;;;;;;7.53;1.45;;;8.60;99.90;;;;;;5046761;28;20116;-68
2023/12/23 06:54:05;;;;;;;13.63;3.55;;;8.60;99.90;;;;;;5046504;28;20045;-69
2023/12/23 06:56:31;;;;;;;11.13;3.67;;;8.60;99.90;;;;;;5045009;28;20060;-68
2023/12/23 06:58:56;;;;;;;11.77;3.55;;;8.60;99.90;;;;;;5044529;28;20051;-68
2023/12/23 07:01:22;;;;;;;14.27;2.47;;;8.60;99.90;;;;;;5044871;28;20045;-69
2023/12/23 07:03:47;;;;;;;14.00;2.67;;;8.70;99.90;;;;;;5049129;28;20110;-68
2023/12/23 07:06:13;;;;;;;14.80;4.00;;;8.70;99.90;;;;;;5044413;28;20041;-68
2023/12/23 07:08:39;;;;;;;15.70;4.18;;;8.80;99.90;;;;;;5040547;28;20037;-69
2023/12/23 07:11:06;;;;;;;15.85;4.30;;;8.70;99.90;;;;;;5039520;28;20059;-69
2023/12/23 07:13:32;;;;;;;17.25;4.30;;;8.80;99.90;;;;;;5044289;28;20080;-68
2023/12/23 07:15:57;;;;;;;16.08;3.97;;;8.80;99.90;;;;;;5043190;28;20072;-69
2023/12/23 07:18:23;;;;;;;16.15;4.10;;;8.90;99.90;;;;;;5050698;28;20067;-69
2023/12/23 07:20:49;;;;;;;15.25;3.78;;;8.80;99.90;;;;;;5040832;28;20044;-68
2023/12/23 07:23:14;;;;;;;16.15;4.10;;;8.90;99.90;;;;;;5043890;28;20045;-69
2023/12/23 07:25:40;;;;;;;15.55;4.68;;;8.90;99.90;;;;;;5038187;28;20079;-69
2023/12/23 07:28:06;;;;;;;19.27;4.93;;;8.90;99.90;;;;;;5039366;28;20037;-69
2023/12/23 07:30:32;;;;;;;2.20;1.30;;;8.90;99.90;;;;;;5034818;28;20045;-69
2023/12/23 07:32:58;;;;;;;1.30;1.00;;;8.80;99.90;;;;;;5034006;28;20057;-69
2023/12/23 07:35:23;;;;;;;1.58;1.10;;;8.60;99.90;;;;;;5042275;28;20048;-68
2023/12/23 07:37:50;;;;;;;0.82;0.82;;;8.30;99.90;;;;;;5050985;28;20034;-68
2023/12/23 07:40:16;;;;;;;1.40;1.10;;;8.00;99.90;;;;;;5029698;28;20049;-69
2023/12/23 07:42:42;;;;;;;1.20;0.80;;;7.80;99.90;;;;;;5032783;28;20048;-68
2023/12/23 07:45:09;;;;;;;0.90;0.65;;;7.60;99.90;;;;;;5041362;28;20129;-68
2023/12/23 07:47:35;;;;;;;2.30;0.80;;;7.40;99.90;;;;;;5037437;28;20076;-68
2023/12/23 07:50:01;;;;;;;1.95;0.90;;;7.20;99.90;;;;;;5042167;28;20449;-68
2023/12/23 07:52:26;;;;;;;1.02;0.75;;;7.10;99.90;;;;;;5040845;28;20124;-68
2023/12/23 07:54:52;;;;;;;1.83;0.80;;;7.10;99.90;;;;;;5032518;28;20627;-68
2023/12/23 07:57:18;;;;;;;1.00;0.90;;;7.00;99.90;;;;;;5038199;28;20069;-68
2023/12/23 07:59:45;;;;;;;2.33;0.60;;;7.00;99.90;;;;;;5040352;28;20516;-68
2023/12/23 08:02:10;;;;;;;0.80;0.40;;;6.80;99.90;;;;;;5039756;28;20064;-68
2023/12/23 08:04:36;;;;;;;1.05;0.60;;;6.60;99.90;;;;;;5036674;28;20410;-68
2023/12/23 08:07:02;;;;;;;0.90;0.90;;;6.50;99.90;;;;;;5036676;28;20493;-68
2023/12/23 08:09:28;;;;;;;1.27;1.08;;;6.50;99.90;;;;;;5032628;28;20136;-68
2023/12/23 08:11:54;;;;;;;0.52;0.52;;;6.50;99.90;;;;;;5038107;28;20037;-68
2023/12/23 08:14:19;;;;;;;0.43;0.43;;;6.30;99.90;;;;;;5044110;28;20143;-67
2023/12/23 08:16:45;;;;;;;1.65;0.90;;;6.20;99.90;;;;;;5043959;28;20081;-68
2023/12/23 08:19:12;;;;;;;1.95;0.70;;;6.20;99.90;;;;;;5035904;28;20048;-68
2023/12/23 08:21:38;;;;;;;0.90;0.80;;;6.10;99.90;;;;;;5038484;28;20058;-67
2023/12/23 08:24:04;;;;;;;2.38;1.00;;;6.00;99.90;;;;;;5033267;28;20053;-67
2023/12/23 08:26:30;;;;;;;0.98;0.60;;;6.00;99.90;;;;;;5043767;28;20048;-68
2023/12/23 08:28:55;;;;;;;0.65;0.50;;;6.00;99.90;;;;;;5063167;28;20631;-68
2023/12/23 08:31:21;;;;;;;1.05;0.80;;;5.90;99.90;;;;;;5034428;28;20052;-68
2023/12/23 08:33:46;;;;;;;0.60;0.57;;;5.90;99.90;;;;;;5037586;28;20612;-68
2023/12/23 08:36:13;;;;;;;0.65;0.50;;;5.90;99.90;;;;;;5038855;28;20119;-69
2023/12/23 08:38:38;;;;;;;0.95;0.40;;;5.80;99.90;;;;;;5055241;28;20036;-69
2023/12/23 08:41:04;;;;;;;1.30;0.80;;;5.80;99.90;;;;;;5036622;28;20041;-68
2023/12/23 08:43:31;;;;;;;0.50;0.50;;;5.80;99.90;;;;;;5044106;28;20041;-69
2023/12/23 08:45:56;;;;;;;0.40;0.40;;;5.80;99.90;;;;;;5048467;28;20519;-69
2023/12/23 08:48:22;;;;;;;1.00;0.50;;;5.70;99.90;;;;;;5045550;28;20045;-69
2023/12/23 08:50:48;;;;;;;0.90;0.80;;;5.70;99.90;;;;;;5040576;28;20034;-69
2023/12/23 08:53:14;;;;;;;1.85;0.50;;;5.70;99.90;;;;;;5041911;28;20561;-69
2023/12/23 08:55:40;;;;;;;1.48;0.80;;;5.70;99.90;;;;;;5027078;28;20041;-69
2023/12/23 08:58:05;;;;;;;1.05;0.52;;;5.70;99.90;;;;;;5040933;28;20163;-69
2023/12/23 09:00:31;;;;;;;1.75;0.50;;;5.60;99.90;;;;;;5033238;28;20049;-68
2023/12/23 09:02:56;;;;;;;0.50;0.30;;;5.60;99.90;;;;;;5041257;28;20045;-69
2023/12/23 09:05:22;;;;;;;1.17;0.50;;;5.60;99.90;;;;;;5035637;28;20045;-69
2023/12/23 09:07:48;;;;;;;1.10;0.50;;;5.60;99.90;;;;;;5041466;28;20045;-70
2023/12/23 09:10:13;;;;;;;1.25;0.50;;;5.60;99.90;;;;;;5047511;28;20055;-69
2023/12/23 09:12:39;;;;;;;2.35;0.52;;;5.60;99.90;;;;;;5048170;28;20059;-68
2023/12/23 09:15:05;;;;;;;0.57;0.57;;;5.60;99.90;;;;;;5042869;28;20053;-68
2023/12/23 09:17:31;;;;;;;0.60;0.60;;;5.60;99.90;;;;;;5047689;28;20046;-68
2023/12/23 09:19:56;;;;;;;1.23;0.90;;;5.60;99.90;;;;;;5046829;28;20053;-69
2023/12/23 09:22:22;;;;;;;0.50;0.50;;;5.60;99.90;;;;;;5046138;28;20033;-69
2023/12/23 09:24:48;;;;;;;0.70;0.70;;;5.60;99.90;;;;;;5039192;28;20124;-68
2023/12/23 09:27:13;;;;;;;1.15;0.45;;;5.60;99.90;;;;;;5047369;28;20041;-68
2023/12/23 09:29:39;;;;;;;0.80;0.45;;;5.70;99.90;;;;;;5045613;28;20080;-68
2023/12/23 09:32:05;;;;;;;0.50;0.50;;;5.70;99.90;;;;;;5045286;28;20098;-68
2023/12/23 09:34:30;;;;;;;0.65;0.65;;;5.60;99.90;;;;;;5046743;28;20124;-68
2023/12/23 09:36:56;;;;;;;0.95;0.90;;;5.60;99.90;;;;;;5048827;28;20048;-68
2023/12/23 09:39:22;;;;;;;0.63;0.60;;;5.70;99.90;;;;;;5038357;28;20053;-68
2023/12/23 09:41:48;;;;;;;1.30;1.00;;;5.70;99.90;;;;;;5045017;28;20041;-68
2023/12/23 09:44:14;;;;;;;0.55;0.50;;;5.70;99.90;;;;;;5033225;28;20136;-67
2023/12/23 09:46:39;;;;;;;0.40;0.40;;;5.80;99.90;;;;;;5046696;28;20548;-68
2023/12/23 09:49:05;;;;;;;1.23;0.60;;;5.70;99.90;;;;;;5040410;28;20116;-68
2023/12/23 09:51:32;;;;;;;1.25;0.90;;;5.70;99.90;;;;;;5042254;28;20072;-69
2023/12/23 09:54:01;;;;;;;1.90;1.10;;;5.70;99.90;;;;;;5044864;28;20693;-69
2023/12/23 09:56:30;;;;;;;0.90;0.68;;;5.80;99.90;;;;;;5044134;28;20050;-70
2023/12/23 09:58:57;;;;;;;1.27;0.80;;;5.80;99.90;;;;;;5032699;28;20050;-71
2023/12/23 10:01:23;;;;;;;1.42;1.20;;;5.80;99.90;;;;;;5033478;28;20045;-69
2023/12/23 10:03:52;;;;;;;2.03;1.00;;;5.80;99.90;;;;;;5043452;28;20432;-70
2023/12/23 10:06:19;;;;;;;2.40;0.70;;;5.80;99.90;;;;;;5038515;28;20052;-69
2023/12/23 10:08:45;;;;;;;2.00;0.98;;;5.80;99.90;;;;;;5041094;28;20115;-69
2023/12/23 10:11:11;;;;;;;1.20;0.65;;;5.80;99.90;;;;;;5041941;28;20053;-70
2023/12/23 10:13:37;;;;;;;0.88;0.70;;;5.80;99.90;;;;;;5032742;28;20100;-68
2023/12/23 10:16:03;;;;;;;2.25;0.80;;;5.80;99.90;;;;;;5055102;28;20049;-68
2023/12/23 10:18:30;;;;;;;0.98;0.70;;;5.80;99.90;;;;;;5035769;28;20049;-68
2023/12/23 10:20:57;;;;;;;1.08;0.80;;;5.80;99.90;;;;;;5046479;28;20974;-69
2023/12/23 10:23:23;;;;;;;1.17;0.60;;;5.80;99.90;;;;;;5040810;28;20037;-69
2023/12/23 10:25:51;;;;;;;2.25;0.98;;;5.80;99.90;;;;;;5058925;28;20697;-69
2023/12/23 10:28:18;;;;;;;1.15;0.70;;;5.90;99.90;;;;;;5051580;28;20087;-68
2023/12/23 10:30:49;;;;;;;2.00;0.90;;;5.90;99.90;;;;;;5049045;28;20095;-68
2023/12/23 10:33:17;;;;;;;1.30;0.68;;;5.90;99.90;;;;;;5041272;28;20079;-69
2023/12/23 10:35:50;;;;;;;1.30;0.80;;;5.90;99.90;;;;;;5038809;28;20072;-70
2023/12/23 10:38:18;;;;;;;1.05;0.68;;;5.90;99.90;;;;;;5047554;28;20045;-69
2023/12/23 10:41:16;;;;;;;1.20;0.98;;;5.90;99.90;;;;;;5052242;28;20077;-69
2023/12/23 10:43:43;;;;;;;1.95;1.27;;;5.90;99.90;;;;;;5050252;28;20091;-67
2023/12/23 10:46:09;;;;;;;2.85;2.58;;;6.00;99.90;;;;;;5047631;28;20484;-69
2023/12/23 10:48:37;;;;;;;2.10;1.33;;;6.00;99.90;;;;;;5054256;28;20041;-69
2023/12/23 10:51:04;;;;;;;4.18;1.50;;;6.10;99.90;;;;;;5048612;28;20114;-69
2023/12/23 10:53:30;;;;;;;5.03;1.48;;;6.10;99.90;;;;;;5043874;28;20041;-70
2023/12/23 10:55:56;;;;;;;5.60;1.95;;;6.10;99.90;;;;;;5050136;28;20048;-70
2023/12/23 10:58:22;;;;;;;4.50;2.00;;;6.10;99.90;;;;;;5053651;28;20037;-68
2023/12/23 11:00:50;;;;;;;11.25;3.92;;;6.10;99.90;;;;;;5049234;28;20116;-67
2023/12/23 11:03:15;;;;;;;;;;;6.20;99.90;;;;;;5046096;28;20052;-68
2023/12/23 11:05:42;;;;;;;24.35;7.22;;;6.30;99.90;;;;;;5047168;28;20058;-68
2023/12/23 11:08:14;;;;;;;19.80;3.70;;;6.50;99.90;;;;;;5047611;28;20033;-68
2023/12/23 11:10:41;;;;;;;27.30;5.32;;;6.80;99.90;;;;;;5039525;28;20056;-68
2023/12/23 11:13:07;;;;;;;43.60;13.48;;;7.10;99.90;;;;;;5034101;28;20057;-69
2023/12/23 11:15:36;;;;;;;20.08;4.35;;;7.30;99.90;;;;;;5037427;28;20423;-71
2023/12/23 11:18:02;;;;;;;19.00;4.28;;;7.60;99.90;;;;;;5045616;28;20048;-69
2023/12/23 11:20:36;;;;;;;29.77;6.28;;;7.90;99.90;;;;;;5048685;28;20041;-69
2023/12/23 11:23:28;;;;;;;12.65;3.70;;;8.10;99.90;;;;;;5035518;28;20072;-69
2023/12/23 11:25:54;;;;;;;21.15;3.35;;;8.40;99.90;;;;;;5038751;28;20066;-70
2023/12/23 11:28:20;;;;;;;23.58;5.07;;;8.70;99.90;;;;;;5045277;28;20107;-71
2023/12/23 11:30:52;;;;;;;12.13;2.78;;;8.90;99.90;;;;;;5048966;28;20520;-70
2023/12/23 11:33:30;;;;;;;21.42;4.68;;;9.00;99.90;;;;;;5037691;28;20570;-69
2023/12/23 11:36:00;;;;;;;18.70;3.90;;;9.20;99.90;;;;;;5047868;28;20101;-68
2023/12/23 11:38:45;;;;;;;16.10;3.78;;;9.30;99.90;;;;;;5043617;28;20124;-69
2023/12/23 11:41:12;;;;;;;15.52;3.42;;;9.40;99.90;;;;;;5049171;28;20044;-69
2023/12/23 11:43:40;;;;;;;16.20;4.13;;;9.50;99.90;;;;;;5035986;28;20448;-70
2023/12/23 11:46:06;;;;;;;20.60;3.88;;;9.50;99.90;;;;;;5046062;28;20095;-71
2023/12/23 11:48:32;;;;;;;21.27;4.78;;;9.50;99.90;;;;;;5046981;28;20037;-68
2023/12/23 11:50:57;;;;;;;18.15;4.40;;;9.70;99.90;;;;;;5047584;28;20056;-68
2023/12/23 11:53:23;;;;;;;15.32;3.83;;;9.70;99.90;;;;;;5047902;28;20037;-69
2023/12/23 11:55:49;;;;;;;19.45;3.75;;;9.80;99.90;;;;;;5045244;28;20425;-69
2023/12/23 11:58:16;;;;;;;20.23;4.05;;;9.80;99.90;;;;;;5044480;28;20489;-70
2023/12/23 12:00:42;;;;;;;15.88;4.00;;;9.80;99.90;;;;;;5039021;28;20045;-70
2023/12/23 12:03:09;;;;;;;15.68;1.83;;;9.80;99.90;;;;;;5042221;28;20103;-70
2023/12/23 12:05:35;;;;;;;19.13;4.15;;;9.80;99.90;;;;;;5048676;28;20041;-67
2023/12/23 12:08:01;;;;;;;19.70;3.92;;;9.80;99.90;;;;;;5047529;28;20063;-68
2023/12/23 12:10:27;;;;;;;19.20;4.60;;;9.90;99.90;;;;;;5046379;28;20091;-68
2023/12/23 12:12:53;;;;;;;17.33;4.13;;;9.80;99.90;;;;;;5051177;28;20041;-68
2023/12/23 12:15:18;;;;;;;18.90;4.32;;;9.80;99.90;;;;;;5052745;28;20307;-68
2023/12/23 12:17:44;;;;;;;19.55;4.05;;;9.80;99.90;;;;;;5044920;28;20454;-68
2023/12/23 12:20:10;;;;;;;18.65;3.92;;;9.80;99.90;;;;;;5026838;28;20037;-69
2023/12/23 12:22:37;;;;;;;22.25;4.53;;;9.80;99.90;;;;;;5046915;28;20123;-69
2023/12/23 12:25:04;;;;;;;;;;;9.90;99.90;;;;;;5038971;28;20051;-69
2023/12/23 12:27:30;;;;;;;18.63;4.13;;;9.80;99.90;;;;;;5042620;28;20415;-68
2023/12/23 12:29:55;;;;;;;19.38;4.15;;;9.90;99.90;;;;;;5043467;28;20083;-69
2023/12/23 12:32:24;;;;;;;16.08;3.78;;;9.90;99.90;;;;;;5039313;28;20081;-69
2023/12/23 12:34:59;;;;;;;17.65;3.85;;;10.00;99.90;;;;;;5047576;28;20033;-69
2023/12/23 12:37:25;;;;;;;20.88;4.78;;;10.00;99.90;;;;;;5042993;28;20041;-69
2023/12/23 12:39:50;;;;;;;16.23;4.15;;;10.10;99.90;;;;;;5040377;28;20048;-68
2023/12/23 12:42:16;;;;;;;21.52;3.92;;;10.10;99.90;;;;;;5044487;28;20384;-69
2023/12/23 12:44:42;;;;;;;20.45;4.40;;;10.10;99.90;;;;;;5042454;28;20530;-68
2023/12/23 12:47:08;;;;;;;20.60;4.22;;;10.10;99.90;;;;;;5041348;28;20049;-69
2023/12/23 12:49:33;;;;;;;20.13;4.47;;;10.20;99.90;;;;;;5043083;28;20175;-70